sensor_id;sensor_type;location;lat;lon;timestamp;P1;durP1;ratioP1;P2;durP2;ratioP2
4174;SDS011;2101;48.290;14.382;2023-07-29T00:00:41;15.90;;;2.03;;
4174;SDS011;2101;48.290;14.382;2023-07-29T00:03:07;20.20;;;3.40;;
4174;SDS011;2101;48.290;14.382;2023-07-29T00:05:33;18.40;;;2.50;;
4174;SDS011;2101;48.290;14.382;2023-07-29T00:08:00;14.70;;;1.73;;
4174;SDS011;2101;48.290;14.382;2023-07-29T00:10:30;15.20;;;1.73;;
4174;SDS011;2101;48.290;14.382;2023-07-29T00:12:57;15.00;;;1.80;;
4174;SDS011;2101;48.290;14.382;2023-07-29T00:15:24;14.60;;;1.63;;
4174;SDS011;2101;48.290;14.382;2023-07-29T00:17:51;19.73;;;1.53;;
4174;SDS011;2101;48.290;14.382;2023-07-29T00:20:17;16.80;;;1.50;;
4174;SDS011;2101;48.290;14.382;2023-07-29T00:22:43;14.23;;;1.33;;
4174;SDS011;2101;48.290;14.382;2023-07-29T00:25:09;13.30;;;0.90;;
4174;SDS011;2101;48.290;14.382;2023-07-29T00:27:36;14.53;;;1.23;;
4174;SDS011;2101;48.290;14.382;2023-07-29T00:30:02;14.70;;;1.40;;
4174;SDS011;2101;48.290;14.382;2023-07-29T00:32:28;15.13;;;1.20;;
4174;SDS011;2101;48.290;14.382;2023-07-29T00:34:55;14.73;;;1.40;;
4174;SDS011;2101;48.290;14.382;2023-07-29T00:37:22;13.77;;;1.10;;
4174;SDS011;2101;48.290;14.382;2023-07-29T00:39:49;24.63;;;1.47;;
4174;SDS011;2101;48.290;14.382;2023-07-29T00:42:15;13.90;;;1.30;;
4174;SDS011;2101;48.290;14.382;2023-07-29T00:44:45;14.50;;;1.40;;
4174;SDS011;2101;48.290;14.382;2023-07-29T00:47:11;15.07;;;1.57;;
4174;SDS011;2101;48.290;14.382;2023-07-29T00:49:38;14.10;;;1.30;;
4174;SDS011;2101;48.290;14.382;2023-07-29T00:52:04;14.30;;;1.40;;
4174;SDS011;2101;48.290;14.382;2023-07-29T00:54:31;14.23;;;1.27;;
4174;SDS011;2101;48.290;14.382;2023-07-29T00:56:58;15.03;;;1.67;;
4174;SDS011;2101;48.290;14.382;2023-07-29T00:59:24;13.30;;;1.10;;
4174;SDS011;2101;48.290;14.382;2023-07-29T01:01:53;15.53;;;1.43;;
4174;SDS011;2101;48.290;14.382;2023-07-29T01:04:19;14.00;;;1.40;;
4174;SDS011;2101;48.290;14.382;2023-07-29T01:06:48;14.20;;;1.30;;
4174;SDS011;2101;48.290;14.382;2023-07-29T01:12:06;14.40;;;1.40;;
4174;SDS011;2101;48.290;14.382;2023-07-29T01:15:06;13.70;;;1.10;;
4174;SDS011;2101;48.290;14.382;2023-07-29T01:17:48;13.17;;;1.00;;
4174;SDS011;2101;48.290;14.382;2023-07-29T01:20:14;14.03;;;1.30;;
4174;SDS011;2101;48.290;14.382;2023-07-29T01:22:42;14.23;;;1.30;;
4174;SDS011;2101;48.290;14.382;2023-07-29T01:25:08;14.17;;;1.30;;
4174;SDS011;2101;48.290;14.382;2023-07-29T01:27:34;14.20;;;1.43;;
4174;SDS011;2101;48.290;14.382;2023-07-29T01:30:01;13.90;;;1.20;;
4174;SDS011;2101;48.290;14.382;2023-07-29T01:35:17;13.23;;;1.10;;
4174;SDS011;2101;48.290;14.382;2023-07-29T01:37:47;14.53;;;1.50;;
4174;SDS011;2101;48.290;14.382;2023-07-29T01:40:14;18.20;;;2.17;;
4174;SDS011;2101;48.290;14.382;2023-07-29T01:42:41;15.27;;;1.77;;
4174;SDS011;2101;48.290;14.382;2023-07-29T01:45:07;15.87;;;2.47;;
4174;SDS011;2101;48.290;14.382;2023-07-29T01:47:33;15.97;;;1.93;;
4174;SDS011;2101;48.290;14.382;2023-07-29T01:50:00;14.00;;;1.37;;
4174;SDS011;2101;48.290;14.382;2023-07-29T01:52:26;15.33;;;1.40;;
4174;SDS011;2101;48.290;14.382;2023-07-29T01:54:52;14.30;;;1.40;;
4174;SDS011;2101;48.290;14.382;2023-07-29T01:57:19;15.00;;;1.90;;
4174;SDS011;2101;48.290;14.382;2023-07-29T01:59:46;13.80;;;1.30;;
4174;SDS011;2101;48.290;14.382;2023-07-29T02:02:12;15.90;;;1.73;;
4174;SDS011;2101;48.290;14.382;2023-07-29T02:04:38;14.87;;;1.53;;
4174;SDS011;2101;48.290;14.382;2023-07-29T02:07:04;16.03;;;1.80;;
4174;SDS011;2101;48.290;14.382;2023-07-29T02:09:30;18.97;;;1.70;;
4174;SDS011;2101;48.290;14.382;2023-07-29T02:11:57;16.73;;;1.83;;
4174;SDS011;2101;48.290;14.382;2023-07-29T02:14:23;17.20;;;1.70;;
4174;SDS011;2101;48.290;14.382;2023-07-29T02:16:49;14.60;;;1.70;;
4174;SDS011;2101;48.290;14.382;2023-07-29T02:19:15;16.17;;;1.80;;
4174;SDS011;2101;48.290;14.382;2023-07-29T02:21:42;14.10;;;1.30;;
4174;SDS011;2101;48.290;14.382;2023-07-29T02:24:11;15.53;;;1.83;;
4174;SDS011;2101;48.290;14.382;2023-07-29T02:26:37;14.97;;;1.90;;
4174;SDS011;2101;48.290;14.382;2023-07-29T02:29:03;15.80;;;2.00;;
4174;SDS011;2101;48.290;14.382;2023-07-29T02:31:32;14.10;;;1.40;;
4174;SDS011;2101;48.290;14.382;2023-07-29T02:33:59;16.10;;;1.50;;
4174;SDS011;2101;48.290;14.382;2023-07-29T02:36:26;17.73;;;1.60;;
4174;SDS011;2101;48.290;14.382;2023-07-29T02:38:52;16.20;;;2.00;;
4174;SDS011;2101;48.290;14.382;2023-07-29T02:41:18;16.10;;;1.53;;
4174;SDS011;2101;48.290;14.382;2023-07-29T02:43:47;15.10;;;1.60;;
4174;SDS011;2101;48.290;14.382;2023-07-29T02:46:17;14.90;;;1.50;;
4174;SDS011;2101;48.290;14.382;2023-07-29T02:48:44;15.17;;;1.60;;
4174;SDS011;2101;48.290;14.382;2023-07-29T02:51:10;14.97;;;1.80;;
4174;SDS011;2101;48.290;14.382;2023-07-29T02:53:37;14.97;;;1.60;;
4174;SDS011;2101;48.290;14.382;2023-07-29T02:56:03;15.40;;;1.43;;
4174;SDS011;2101;48.290;14.382;2023-07-29T02:58:29;16.40;;;1.67;;
4174;SDS011;2101;48.290;14.382;2023-07-29T03:01:02;14.00;;;1.13;;
4174;SDS011;2101;48.290;14.382;2023-07-29T03:03:29;14.37;;;1.40;;
4174;SDS011;2101;48.290;14.382;2023-07-29T03:06:02;15.80;;;2.13;;
4174;SDS011;2101;48.290;14.382;2023-07-29T03:08:28;15.33;;;1.77;;
4174;SDS011;2101;48.290;14.382;2023-07-29T03:10:55;15.67;;;1.93;;
4174;SDS011;2101;48.290;14.382;2023-07-29T03:13:25;14.80;;;1.77;;
4174;SDS011;2101;48.290;14.382;2023-07-29T03:15:51;16.33;;;2.40;;
4174;SDS011;2101;48.290;14.382;2023-07-29T03:18:17;14.50;;;1.77;;
4174;SDS011;2101;48.290;14.382;2023-07-29T03:20:43;17.87;;;1.90;;
4174;SDS011;2101;48.290;14.382;2023-07-29T03:23:10;15.33;;;1.73;;
4174;SDS011;2101;48.290;14.382;2023-07-29T03:25:37;15.20;;;1.80;;
4174;SDS011;2101;48.290;14.382;2023-07-29T03:28:03;15.57;;;1.90;;
4174;SDS011;2101;48.290;14.382;2023-07-29T03:30:32;18.20;;;2.10;;
4174;SDS011;2101;48.290;14.382;2023-07-29T03:32:58;20.87;;;2.97;;
4174;SDS011;2101;48.290;14.382;2023-07-29T03:35:25;16.50;;;2.00;;
4174;SDS011;2101;48.290;14.382;2023-07-29T03:37:54;15.20;;;1.80;;
4174;SDS011;2101;48.290;14.382;2023-07-29T03:40:20;17.70;;;2.43;;
4174;SDS011;2101;48.290;14.382;2023-07-29T03:42:48;15.80;;;2.30;;
4174;SDS011;2101;48.290;14.382;2023-07-29T03:45:17;16.07;;;2.00;;
4174;SDS011;2101;48.290;14.382;2023-07-29T03:47:43;15.27;;;2.03;;
4174;SDS011;2101;48.290;14.382;2023-07-29T03:50:09;15.80;;;2.27;;
4174;SDS011;2101;48.290;14.382;2023-07-29T03:52:36;18.70;;;2.40;;
4174;SDS011;2101;48.290;14.382;2023-07-29T03:55:02;15.33;;;1.50;;
4174;SDS011;2101;48.290;14.382;2023-07-29T03:57:28;35.30;;;2.10;;
4174;SDS011;2101;48.290;14.382;2023-07-29T03:59:55;15.53;;;1.53;;
4174;SDS011;2101;48.290;14.382;2023-07-29T04:02:22;14.27;;;1.50;;
4174;SDS011;2101;48.290;14.382;2023-07-29T04:04:51;14.40;;;1.80;;
4174;SDS011;2101;48.290;14.382;2023-07-29T04:07:20;14.70;;;1.70;;
4174;SDS011;2101;48.290;14.382;2023-07-29T04:09:47;15.37;;;2.17;;
4174;SDS011;2101;48.290;14.382;2023-07-29T04:12:14;18.67;;;2.30;;
4174;SDS011;2101;48.290;14.382;2023-07-29T04:14:40;15.10;;;2.10;;
4174;SDS011;2101;48.290;14.382;2023-07-29T04:17:07;16.37;;;2.03;;
4174;SDS011;2101;48.290;14.382;2023-07-29T04:19:33;16.53;;;2.27;;
4174;SDS011;2101;48.290;14.382;2023-07-29T04:21:59;16.33;;;2.50;;
4174;SDS011;2101;48.290;14.382;2023-07-29T04:24:25;17.23;;;3.33;;
4174;SDS011;2101;48.290;14.382;2023-07-29T04:26:52;17.87;;;2.90;;
4174;SDS011;2101;48.290;14.382;2023-07-29T04:29:18;20.80;;;2.93;;
4174;SDS011;2101;48.290;14.382;2023-07-29T04:31:49;19.47;;;2.73;;
4174;SDS011;2101;48.290;14.382;2023-07-29T04:34:17;18.30;;;3.00;;
4174;SDS011;2101;48.290;14.382;2023-07-29T04:36:43;18.37;;;2.63;;
4174;SDS011;2101;48.290;14.382;2023-07-29T04:39:12;15.07;;;1.97;;
4174;SDS011;2101;48.290;14.382;2023-07-29T04:41:39;14.67;;;2.20;;
4174;SDS011;2101;48.290;14.382;2023-07-29T04:44:05;16.27;;;1.97;;
4174;SDS011;2101;48.290;14.382;2023-07-29T04:46:31;16.27;;;2.57;;
4174;SDS011;2101;48.290;14.382;2023-07-29T04:48:58;16.57;;;1.90;;
4174;SDS011;2101;48.290;14.382;2023-07-29T04:51:24;15.50;;;1.77;;
4174;SDS011;2101;48.290;14.382;2023-07-29T04:53:50;16.00;;;2.10;;
4174;SDS011;2101;48.290;14.382;2023-07-29T04:56:17;15.73;;;1.40;;
4174;SDS011;2101;48.290;14.382;2023-07-29T04:58:43;15.23;;;2.00;;
4174;SDS011;2101;48.290;14.382;2023-07-29T05:01:09;18.13;;;2.40;;
4174;SDS011;2101;48.290;14.382;2023-07-29T05:03:35;16.57;;;1.90;;
4174;SDS011;2101;48.290;14.382;2023-07-29T05:06:13;14.70;;;1.40;;
4174;SDS011;2101;48.290;14.382;2023-07-29T05:08:39;17.83;;;1.50;;
4174;SDS011;2101;48.290;14.382;2023-07-29T05:11:10;14.20;;;1.50;;
4174;SDS011;2101;48.290;14.382;2023-07-29T05:13:36;16.53;;;1.70;;
4174;SDS011;2101;48.290;14.382;2023-07-29T05:16:02;15.40;;;2.00;;
4174;SDS011;2101;48.290;14.382;2023-07-29T05:18:29;15.30;;;2.13;;
4174;SDS011;2101;48.290;14.382;2023-07-29T05:20:55;15.80;;;2.10;;
4174;SDS011;2101;48.290;14.382;2023-07-29T05:23:24;15.23;;;2.10;;
4174;SDS011;2101;48.290;14.382;2023-07-29T05:25:51;15.33;;;1.93;;
4174;SDS011;2101;48.290;14.382;2023-07-29T05:28:17;17.00;;;2.07;;
4174;SDS011;2101;48.290;14.382;2023-07-29T05:30:44;18.67;;;2.30;;
4174;SDS011;2101;48.290;14.382;2023-07-29T05:33:10;17.67;;;2.33;;
4174;SDS011;2101;48.290;14.382;2023-07-29T05:35:39;16.03;;;1.90;;
4174;SDS011;2101;48.290;14.382;2023-07-29T05:38:06;16.07;;;2.60;;
4174;SDS011;2101;48.290;14.382;2023-07-29T05:40:33;17.37;;;2.40;;
4174;SDS011;2101;48.290;14.382;2023-07-29T05:43:00;16.77;;;2.00;;
4174;SDS011;2101;48.290;14.382;2023-07-29T05:45:26;14.50;;;1.73;;
4174;SDS011;2101;48.290;14.382;2023-07-29T05:47:52;13.67;;;1.50;;
4174;SDS011;2101;48.290;14.382;2023-07-29T05:50:22;14.60;;;1.57;;
4174;SDS011;2101;48.290;14.382;2023-07-29T05:52:49;16.30;;;2.13;;
4174;SDS011;2101;48.290;14.382;2023-07-29T05:55:15;27.10;;;2.57;;
4174;SDS011;2101;48.290;14.382;2023-07-29T05:57:41;14.27;;;1.60;;
4174;SDS011;2101;48.290;14.382;2023-07-29T06:00:07;17.43;;;2.40;;
4174;SDS011;2101;48.290;14.382;2023-07-29T06:02:40;15.97;;;1.60;;
4174;SDS011;2101;48.290;14.382;2023-07-29T06:05:06;20.63;;;2.57;;
4174;SDS011;2101;48.290;14.382;2023-07-29T06:07:33;18.67;;;2.90;;
4174;SDS011;2101;48.290;14.382;2023-07-29T06:10:05;16.00;;;2.23;;
4174;SDS011;2101;48.290;14.382;2023-07-29T06:12:35;16.90;;;2.67;;
4174;SDS011;2101;48.290;14.382;2023-07-29T06:15:01;19.00;;;2.60;;
4174;SDS011;2101;48.290;14.382;2023-07-29T06:17:27;14.90;;;2.10;;
4174;SDS011;2101;48.290;14.382;2023-07-29T06:19:53;17.40;;;3.10;;
4174;SDS011;2101;48.290;14.382;2023-07-29T06:22:20;18.97;;;2.60;;
4174;SDS011;2101;48.290;14.382;2023-07-29T06:24:46;21.40;;;2.70;;
4174;SDS011;2101;48.290;14.382;2023-07-29T06:27:13;15.70;;;2.57;;
4174;SDS011;2101;48.290;14.382;2023-07-29T06:29:39;14.03;;;2.00;;
4174;SDS011;2101;48.290;14.382;2023-07-29T06:32:06;16.60;;;2.67;;
4174;SDS011;2101;48.290;14.382;2023-07-29T06:34:32;14.13;;;2.50;;
4174;SDS011;2101;48.290;14.382;2023-07-29T06:37:01;14.67;;;2.37;;
4174;SDS011;2101;48.290;14.382;2023-07-29T06:39:27;14.30;;;2.43;;
4174;SDS011;2101;48.290;14.382;2023-07-29T06:41:53;14.20;;;2.00;;
4174;SDS011;2101;48.290;14.382;2023-07-29T06:44:19;15.15;;;1.92;;
4174;SDS011;2101;48.290;14.382;2023-07-29T06:46:46;13.98;;;2.10;;
4174;SDS011;2101;48.290;14.382;2023-07-29T06:49:12;13.13;;;1.75;;
4174;SDS011;2101;48.290;14.382;2023-07-29T06:51:38;13.80;;;1.88;;
4174;SDS011;2101;48.290;14.382;2023-07-29T06:54:05;15.50;;;2.28;;
4174;SDS011;2101;48.290;14.382;2023-07-29T06:56:31;13.82;;;2.58;;
4174;SDS011;2101;48.290;14.382;2023-07-29T06:58:57;15.90;;;2.63;;
4174;SDS011;2101;48.290;14.382;2023-07-29T07:01:26;16.40;;;2.70;;
4174;SDS011;2101;48.290;14.382;2023-07-29T07:03:53;15.65;;;2.33;;
4174;SDS011;2101;48.290;14.382;2023-07-29T07:06:20;14.00;;;1.75;;
4174;SDS011;2101;48.290;14.382;2023-07-29T07:08:47;13.57;;;2.20;;
4174;SDS011;2101;48.290;14.382;2023-07-29T07:11:15;17.45;;;3.08;;
4174;SDS011;2101;48.290;14.382;2023-07-29T07:13:42;15.77;;;2.65;;
4174;SDS011;2101;48.290;14.382;2023-07-29T07:16:12;15.30;;;2.40;;
4174;SDS011;2101;48.290;14.382;2023-07-29T07:18:42;14.88;;;2.22;;
4174;SDS011;2101;48.290;14.382;2023-07-29T07:21:09;14.80;;;2.47;;
4174;SDS011;2101;48.290;14.382;2023-07-29T07:23:35;15.82;;;2.65;;
4174;SDS011;2101;48.290;14.382;2023-07-29T07:26:04;17.73;;;2.80;;
4174;SDS011;2101;48.290;14.382;2023-07-29T07:28:30;14.60;;;2.28;;
4174;SDS011;2101;48.290;14.382;2023-07-29T07:30:59;14.63;;;2.35;;
4174;SDS011;2101;48.290;14.382;2023-07-29T07:33:28;15.10;;;2.10;;
4174;SDS011;2101;48.290;14.382;2023-07-29T07:35:54;14.32;;;2.22;;
4174;SDS011;2101;48.290;14.382;2023-07-29T07:38:20;17.60;;;2.50;;
4174;SDS011;2101;48.290;14.382;2023-07-29T07:40:53;22.25;;;2.35;;
4174;SDS011;2101;48.290;14.382;2023-07-29T07:43:23;12.82;;;1.77;;
4174;SDS011;2101;48.290;14.382;2023-07-29T07:45:49;14.10;;;1.80;;
4174;SDS011;2101;48.290;14.382;2023-07-29T07:48:16;14.60;;;1.90;;
4174;SDS011;2101;48.290;14.382;2023-07-29T07:50:42;18.27;;;2.00;;
4174;SDS011;2101;48.290;14.382;2023-07-29T07:53:08;16.52;;;1.85;;
4174;SDS011;2101;48.290;14.382;2023-07-29T07:55:35;13.30;;;1.45;;
4174;SDS011;2101;48.290;14.382;2023-07-29T07:58:01;14.15;;;1.85;;
4174;SDS011;2101;48.290;14.382;2023-07-29T08:00:28;15.45;;;1.30;;
4174;SDS011;2101;48.290;14.382;2023-07-29T08:02:54;12.70;;;1.48;;
4174;SDS011;2101;48.290;14.382;2023-07-29T08:05:20;12.25;;;1.30;;
4174;SDS011;2101;48.290;14.382;2023-07-29T08:07:47;13.20;;;1.60;;
4174;SDS011;2101;48.290;14.382;2023-07-29T08:10:13;12.13;;;1.40;;
4174;SDS011;2101;48.290;14.382;2023-07-29T08:12:40;12.55;;;1.23;;
4174;SDS011;2101;48.290;14.382;2023-07-29T08:15:07;12.32;;;1.30;;
4174;SDS011;2101;48.290;14.382;2023-07-29T08:17:33;12.07;;;1.10;;
4174;SDS011;2101;48.290;14.382;2023-07-29T08:19:59;12.10;;;1.02;;
4174;SDS011;2101;48.290;14.382;2023-07-29T08:22:29;12.68;;;1.38;;
4174;SDS011;2101;48.290;14.382;2023-07-29T08:25:01;16.45;;;1.38;;
4174;SDS011;2101;48.290;14.382;2023-07-29T08:27:27;13.30;;;1.20;;
4174;SDS011;2101;48.290;14.382;2023-07-29T08:29:56;12.40;;;1.15;;
4174;SDS011;2101;48.290;14.382;2023-07-29T08:32:34;13.50;;;1.35;;
4174;SDS011;2101;48.290;14.382;2023-07-29T08:35:00;12.23;;;1.05;;
4174;SDS011;2101;48.290;14.382;2023-07-29T08:37:26;15.15;;;1.40;;
4174;SDS011;2101;48.290;14.382;2023-07-29T08:39:52;13.18;;;1.40;;
4174;SDS011;2101;48.290;14.382;2023-07-29T08:42:21;14.93;;;1.20;;
4174;SDS011;2101;48.290;14.382;2023-07-29T08:44:49;13.20;;;1.58;;
4174;SDS011;2101;48.290;14.382;2023-07-29T08:47:17;17.95;;;1.52;;
4174;SDS011;2101;48.290;14.382;2023-07-29T08:49:44;14.60;;;1.70;;
4174;SDS011;2101;48.290;14.382;2023-07-29T08:52:11;14.70;;;1.73;;
4174;SDS011;2101;48.290;14.382;2023-07-29T08:54:38;13.80;;;1.05;;
4174;SDS011;2101;48.290;14.382;2023-07-29T08:57:04;13.30;;;1.40;;
4174;SDS011;2101;48.290;14.382;2023-07-29T08:59:30;14.02;;;1.25;;
4174;SDS011;2101;48.290;14.382;2023-07-29T09:01:57;16.98;;;1.63;;
4174;SDS011;2101;48.290;14.382;2023-07-29T09:04:23;15.13;;;1.48;;
4174;SDS011;2101;48.290;14.382;2023-07-29T09:06:50;12.73;;;1.20;;
4174;SDS011;2101;48.290;14.382;2023-07-29T09:09:19;12.77;;;1.07;;
4174;SDS011;2101;48.290;14.382;2023-07-29T09:11:45;14.43;;;1.10;;
4174;SDS011;2101;48.290;14.382;2023-07-29T09:14:11;13.40;;;1.23;;
4174;SDS011;2101;48.290;14.382;2023-07-29T09:16:37;13.60;;;1.30;;
4174;SDS011;2101;48.290;14.382;2023-07-29T09:19:04;15.50;;;1.30;;
4174;SDS011;2101;48.290;14.382;2023-07-29T09:21:30;14.93;;;1.57;;
4174;SDS011;2101;48.290;14.382;2023-07-29T09:23:56;17.70;;;2.43;;
4174;SDS011;2101;48.290;14.382;2023-07-29T09:26:26;23.60;;;2.10;;
4174;SDS011;2101;48.290;14.382;2023-07-29T09:28:53;13.57;;;1.23;;
4174;SDS011;2101;48.290;14.382;2023-07-29T09:31:20;13.47;;;1.23;;
4174;SDS011;2101;48.290;14.382;2023-07-29T09:33:46;14.90;;;1.70;;
4174;SDS011;2101;48.290;14.382;2023-07-29T09:36:12;14.03;;;1.37;;
4174;SDS011;2101;48.290;14.382;2023-07-29T09:38:41;14.53;;;1.80;;
4174;SDS011;2101;48.290;14.382;2023-07-29T09:41:18;14.50;;;1.50;;
4174;SDS011;2101;48.290;14.382;2023-07-29T09:43:44;15.90;;;1.50;;
4174;SDS011;2101;48.290;14.382;2023-07-29T09:46:11;14.00;;;1.30;;
4174;SDS011;2101;48.290;14.382;2023-07-29T09:48:37;14.10;;;1.40;;
4174;SDS011;2101;48.290;14.382;2023-07-29T09:51:13;14.40;;;1.60;;
4174;SDS011;2101;48.290;14.382;2023-07-29T09:53:43;13.20;;;1.13;;
4174;SDS011;2101;48.290;14.382;2023-07-29T09:56:12;13.10;;;1.27;;
4174;SDS011;2101;48.290;14.382;2023-07-29T09:58:38;15.70;;;1.93;;
4174;SDS011;2101;48.290;14.382;2023-07-29T10:01:05;13.43;;;1.50;;
4174;SDS011;2101;48.290;14.382;2023-07-29T10:03:31;13.00;;;1.13;;
4174;SDS011;2101;48.290;14.382;2023-07-29T10:06:00;15.63;;;1.23;;
4174;SDS011;2101;48.290;14.382;2023-07-29T10:08:29;12.70;;;1.00;;
4174;SDS011;2101;48.290;14.382;2023-07-29T10:10:59;13.50;;;1.23;;
4174;SDS011;2101;48.290;14.382;2023-07-29T10:13:26;14.43;;;1.43;;
4174;SDS011;2101;48.290;14.382;2023-07-29T10:15:53;14.47;;;1.00;;
4174;SDS011;2101;48.290;14.382;2023-07-29T10:18:23;14.23;;;1.40;;
4174;SDS011;2101;48.290;14.382;2023-07-29T10:20:50;15.33;;;1.40;;
4174;SDS011;2101;48.290;14.382;2023-07-29T10:23:17;13.67;;;1.33;;
4174;SDS011;2101;48.290;14.382;2023-07-29T10:25:49;17.60;;;1.37;;
4174;SDS011;2101;48.290;14.382;2023-07-29T10:28:18;14.77;;;1.50;;
4174;SDS011;2101;48.290;14.382;2023-07-29T10:30:47;13.60;;;1.40;;
4174;SDS011;2101;48.290;14.382;2023-07-29T10:33:18;14.23;;;1.40;;
4174;SDS011;2101;48.290;14.382;2023-07-29T10:35:44;14.40;;;1.50;;
4174;SDS011;2101;48.290;14.382;2023-07-29T10:38:14;13.70;;;1.30;;
4174;SDS011;2101;48.290;14.382;2023-07-29T10:40:48;13.73;;;1.20;;
4174;SDS011;2101;48.290;14.382;2023-07-29T10:43:23;13.87;;;1.30;;
4174;SDS011;2101;48.290;14.382;2023-07-29T10:45:52;14.10;;;1.30;;
4174;SDS011;2101;48.290;14.382;2023-07-29T10:53:45;15.53;;;1.63;;
4174;SDS011;2101;48.290;14.382;2023-07-29T10:56:14;14.37;;;1.70;;
4174;SDS011;2101;48.290;14.382;2023-07-29T10:58:52;14.77;;;2.00;;
4174;SDS011;2101;48.290;14.382;2023-07-29T11:01:32;21.27;;;1.90;;
4174;SDS011;2101;48.290;14.382;2023-07-29T11:14:37;15.07;;;1.67;;
4174;SDS011;2101;48.290;14.382;2023-07-29T11:17:09;14.17;;;1.47;;
4174;SDS011;2101;48.290;14.382;2023-07-29T11:19:35;16.20;;;1.47;;
4174;SDS011;2101;48.290;14.382;2023-07-29T11:22:04;13.37;;;1.33;;
4174;SDS011;2101;48.290;14.382;2023-07-29T11:24:35;13.47;;;1.40;;
4174;SDS011;2101;48.290;14.382;2023-07-29T11:27:04;16.17;;;1.40;;
4174;SDS011;2101;48.290;14.382;2023-07-29T11:29:30;15.83;;;1.60;;
4174;SDS011;2101;48.290;14.382;2023-07-29T11:31:56;15.30;;;2.00;;
4174;SDS011;2101;48.290;14.382;2023-07-29T11:34:32;13.80;;;1.60;;
4174;SDS011;2101;48.290;14.382;2023-07-29T11:36:58;13.90;;;1.70;;
4174;SDS011;2101;48.290;14.382;2023-07-29T11:39:24;14.43;;;1.57;;
4174;SDS011;2101;48.290;14.382;2023-07-29T11:41:50;18.43;;;1.97;;
4174;SDS011;2101;48.290;14.382;2023-07-29T11:44:16;13.30;;;1.20;;
4174;SDS011;2101;48.290;14.382;2023-07-29T11:46:45;13.53;;;1.60;;
4174;SDS011;2101;48.290;14.382;2023-07-29T11:49:13;14.27;;;1.43;;
4174;SDS011;2101;48.290;14.382;2023-07-29T11:51:43;13.80;;;1.40;;
4174;SDS011;2101;48.290;14.382;2023-07-29T11:54:09;14.57;;;1.53;;
4174;SDS011;2101;48.290;14.382;2023-07-29T11:56:36;19.20;;;1.70;;
4174;SDS011;2101;48.290;14.382;2023-07-29T11:59:03;13.60;;;1.40;;
4174;SDS011;2101;48.290;14.382;2023-07-29T12:01:29;17.00;;;1.90;;
4174;SDS011;2101;48.290;14.382;2023-07-29T12:03:56;14.13;;;2.10;;
4174;SDS011;2101;48.290;14.382;2023-07-29T12:06:30;13.70;;;1.47;;
4174;SDS011;2101;48.290;14.382;2023-07-29T12:09:01;23.73;;;2.10;;
4174;SDS011;2101;48.290;14.382;2023-07-29T12:11:27;14.10;;;1.67;;
4174;SDS011;2101;48.290;14.382;2023-07-29T12:13:53;13.90;;;1.80;;
4174;SDS011;2101;48.290;14.382;2023-07-29T12:16:19;34.47;;;1.80;;
4174;SDS011;2101;48.290;14.382;2023-07-29T12:18:45;13.80;;;1.40;;
4174;SDS011;2101;48.290;14.382;2023-07-29T12:21:14;13.70;;;1.70;;
4174;SDS011;2101;48.290;14.382;2023-07-29T12:23:40;13.90;;;1.63;;
4174;SDS011;2101;48.290;14.382;2023-07-29T12:26:06;13.70;;;1.50;;
4174;SDS011;2101;48.290;14.382;2023-07-29T12:28:32;13.10;;;1.40;;
4174;SDS011;2101;48.290;14.382;2023-07-29T12:31:06;13.90;;;1.73;;
4174;SDS011;2101;48.290;14.382;2023-07-29T12:33:34;13.20;;;1.30;;
4174;SDS011;2101;48.290;14.382;2023-07-29T12:36:01;14.40;;;1.50;;
4174;SDS011;2101;48.290;14.382;2023-07-29T12:38:28;13.70;;;1.40;;
4174;SDS011;2101;48.290;14.382;2023-07-29T12:40:58;14.60;;;2.00;;
4174;SDS011;2101;48.290;14.382;2023-07-29T12:43:25;13.70;;;1.73;;
4174;SDS011;2101;48.290;14.382;2023-07-29T12:45:54;17.40;;;2.40;;
4174;SDS011;2101;48.290;14.382;2023-07-29T12:48:30;15.90;;;1.67;;
4174;SDS011;2101;48.290;14.382;2023-07-29T12:50:56;14.37;;;1.90;;
4174;SDS011;2101;48.290;14.382;2023-07-29T12:53:22;14.97;;;1.50;;
4174;SDS011;2101;48.290;14.382;2023-07-29T12:55:49;13.90;;;1.67;;
4174;SDS011;2101;48.290;14.382;2023-07-29T12:58:16;12.83;;;1.30;;
4174;SDS011;2101;48.290;14.382;2023-07-29T13:00:45;16.10;;;1.47;;
4174;SDS011;2101;48.290;14.382;2023-07-29T13:03:11;14.90;;;2.07;;
4174;SDS011;2101;48.290;14.382;2023-07-29T13:05:40;14.17;;;1.70;;
4174;SDS011;2101;48.290;14.382;2023-07-29T13:08:09;13.73;;;1.77;;
4174;SDS011;2101;48.290;14.382;2023-07-29T13:10:35;18.00;;;2.23;;
4174;SDS011;2101;48.290;14.382;2023-07-29T13:13:01;14.73;;;2.10;;
4174;SDS011;2101;48.290;14.382;2023-07-29T13:15:30;13.10;;;1.50;;
4174;SDS011;2101;48.290;14.382;2023-07-29T13:17:57;13.97;;;1.40;;
4174;SDS011;2101;48.290;14.382;2023-07-29T13:20:29;13.33;;;1.40;;
4174;SDS011;2101;48.290;14.382;2023-07-29T13:22:55;13.00;;;1.33;;
4174;SDS011;2101;48.290;14.382;2023-07-29T13:25:21;14.63;;;1.57;;
4174;SDS011;2101;48.290;14.382;2023-07-29T13:27:47;13.77;;;1.30;;
4174;SDS011;2101;48.290;14.382;2023-07-29T13:30:13;13.97;;;1.70;;
4174;SDS011;2101;48.290;14.382;2023-07-29T13:32:39;12.70;;;1.13;;
4174;SDS011;2101;48.290;14.382;2023-07-29T13:35:06;13.50;;;1.30;;
4174;SDS011;2101;48.290;14.382;2023-07-29T13:37:32;14.13;;;1.77;;
4174;SDS011;2101;48.290;14.382;2023-07-29T13:40:01;14.27;;;1.20;;
4174;SDS011;2101;48.290;14.382;2023-07-29T13:42:27;14.43;;;1.53;;
4174;SDS011;2101;48.290;14.382;2023-07-29T13:44:56;13.53;;;1.27;;
4174;SDS011;2101;48.290;14.382;2023-07-29T13:47:22;14.03;;;1.77;;
4174;SDS011;2101;48.290;14.382;2023-07-29T13:49:48;13.40;;;1.40;;
4174;SDS011;2101;48.290;14.382;2023-07-29T13:52:14;13.60;;;1.33;;
4174;SDS011;2101;48.290;14.382;2023-07-29T13:54:40;13.93;;;1.70;;
4174;SDS011;2101;48.290;14.382;2023-07-29T13:57:06;15.87;;;1.40;;
4174;SDS011;2101;48.290;14.382;2023-07-29T13:59:35;14.37;;;1.63;;
4174;SDS011;2101;48.290;14.382;2023-07-29T14:02:04;16.07;;;1.80;;
4174;SDS011;2101;48.290;14.382;2023-07-29T14:04:30;15.43;;;1.93;;
4174;SDS011;2101;48.290;14.382;2023-07-29T14:06:58;16.53;;;1.50;;
4174;SDS011;2101;48.290;14.382;2023-07-29T14:09:25;15.00;;;1.40;;
4174;SDS011;2101;48.290;14.382;2023-07-29T14:11:51;18.60;;;1.77;;
4174;SDS011;2101;48.290;14.382;2023-07-29T14:14:17;14.63;;;1.20;;
4174;SDS011;2101;48.290;14.382;2023-07-29T14:16:43;13.80;;;1.20;;
4174;SDS011;2101;48.290;14.382;2023-07-29T14:19:09;13.90;;;1.07;;
4174;SDS011;2101;48.290;14.382;2023-07-29T14:21:36;14.90;;;1.53;;
4174;SDS011;2101;48.290;14.382;2023-07-29T14:24:02;14.53;;;1.10;;
4174;SDS011;2101;48.290;14.382;2023-07-29T14:26:28;15.17;;;1.20;;
4174;SDS011;2101;48.290;14.382;2023-07-29T14:28:55;18.30;;;1.77;;
4174;SDS011;2101;48.290;14.382;2023-07-29T14:31:21;15.67;;;1.27;;
4174;SDS011;2101;48.290;14.382;2023-07-29T14:33:47;18.80;;;1.60;;
4174;SDS011;2101;48.290;14.382;2023-07-29T14:36:17;13.77;;;1.20;;
4174;SDS011;2101;48.290;14.382;2023-07-29T14:38:43;13.83;;;1.30;;
4174;SDS011;2101;48.290;14.382;2023-07-29T14:41:10;14.00;;;1.40;;
4174;SDS011;2101;48.290;14.382;2023-07-29T14:43:36;13.57;;;1.50;;
4174;SDS011;2101;48.290;14.382;2023-07-29T14:46:02;18.40;;;1.20;;
4174;SDS011;2101;48.290;14.382;2023-07-29T14:48:34;14.60;;;1.10;;
4174;SDS011;2101;48.290;14.382;2023-07-29T14:51:03;14.00;;;1.30;;
4174;SDS011;2101;48.290;14.382;2023-07-29T14:53:29;16.30;;;1.20;;
4174;SDS011;2101;48.290;14.382;2023-07-29T14:55:58;16.90;;;1.90;;
4174;SDS011;2101;48.290;14.382;2023-07-29T14:58:24;14.07;;;1.10;;
4174;SDS011;2101;48.290;14.382;2023-07-29T15:00:56;12.77;;;1.03;;
4174;SDS011;2101;48.290;14.382;2023-07-29T15:03:23;15.90;;;1.30;;
4174;SDS011;2101;48.290;14.382;2023-07-29T15:05:50;16.73;;;1.43;;
4174;SDS011;2101;48.290;14.382;2023-07-29T15:08:17;17.53;;;1.47;;
4174;SDS011;2101;48.290;14.382;2023-07-29T15:10:49;14.83;;;1.80;;